Time;durP1;ratioP1;P1;durP2;ratioP2;P2;SDS_P1;SDS_P2;PMS_P1;PMS_P2;Temp;Humidity;BMP_temperature;BMP_pressure;BME280_temperature;BME280_humidity;BME280_pressure;Samples;Min_cycle;Max_cycle;Signal;HPM_P1;HPM_P2
2022/04/15 00:00:48;;;;;;;;;11.00;10.25;;;;;11.14;54.74;101619.16;146617;610;45009;-74
2022/04/15 00:03:40;;;;;;;;;13.00;11.00;;;;;11.14;54.83;101626.94;146611;590;46920;-75
2022/04/15 00:06:33;;;;;;;;;13.25;10.75;;;;;11.14;55.02;101626.03;146614;583;45020;-76
2022/04/15 00:09:25;;;;;;;;;12.50;11.75;;;;;11.08;55.15;101636.94;146611;599;46011;-78
2022/04/15 00:12:27;;;;;;;;;12.25;12.25;;;;;10.80;56.09;101603.13;146613;579;45020;-78
2022/04/15 00:15:20;;;;;;;;;12.50;11.50;;;;;10.83;56.13;101635.34;146614;564;45016;-79
2022/04/15 00:18:12;;;;;;;;;13.00;12.50;;;;;10.78;56.60;101633.28;146609;620;45021;-79
2022/04/15 00:21:06;;;;;;;;;16.75;15.25;;;;;10.77;56.42;101634.97;146589;653;46016;-79
2022/04/15 00:23:58;;;;;;;;;13.50;12.75;;;;;10.78;56.84;101635.88;146594;643;46010;-79
2022/04/15 00:26:50;;;;;;;;;11.00;10.50;;;;;10.72;56.86;101632.88;146590;602;46918;-79
2022/04/15 00:29:42;;;;;;;;;3.75;3.75;;;;;10.70;56.07;101634.47;146593;584;46020;-80
2022/04/15 00:32:34;;;;;;;;;12.75;10.00;;;;;10.71;55.98;101624.19;146591;606;46016;-80
2022/04/15 00:35:26;;;;;;;;;12.75;10.50;;;;;10.70;55.57;101626.69;146591;565;46008;-80
2022/04/15 00:38:19;;;;;;;;;12.25;10.25;;;;;10.68;55.24;101633.47;146588;573;46016;-73
2022/04/15 00:41:17;;;;;;;;;10.25;9.50;;;;;10.67;55.19;101634.28;146590;574;46021;-75
2022/04/15 00:44:10;;;;;;;;;9.50;8.00;;;;;10.69;55.19;101635.28;146593;570;46010;-74
2022/04/15 00:47:02;;;;;;;;;10.75;8.50;;;;;10.68;55.28;101634.34;146588;608;46021;-74
2022/04/15 00:49:55;;;;;;;;;9.50;9.50;;;;;10.68;55.21;101634.34;146586;585;47012;-71
2022/04/15 00:52:50;;;;;;;;;11.75;10.50;;;;;10.67;55.52;101634.28;146594;569;46020;-75
2022/04/15 00:55:43;;;;;;;;;7.75;7.00;;;;;10.66;55.40;101640.28;146590;609;47012;-70
2022/04/15 00:58:40;;;;;;;;;11.50;10.50;;;;;10.61;55.33;101633.06;146597;613;46008;-71
2022/04/15 01:01:32;;;;;;;;;6.75;6.50;;;;;10.55;55.36;101624.88;146588;712;46016;-72
2022/04/15 01:04:27;;;;;;;;;9.75;8.50;;;;;10.52;55.28;101619.50;146596;591;46008;-72
2022/04/15 01:07:23;;;;;;;;;9.25;7.50;;;;;10.52;55.52;101619.50;146589;609;46016;-73
2022/04/15 01:10:16;;;;;;;;;10.25;9.75;;;;;10.54;55.14;101611.81;146591;596;46021;-72
2022/04/15 01:13:14;;;;;;;;;9.25;7.75;;;;;10.59;54.69;101607.81;146592;588;46016;-73
2022/04/15 01:16:07;;;;;;;;;9.50;9.50;;;;;10.66;55.18;101614.34;146588;604;46008;-72
2022/04/15 01:18:58;;;;;;;;;9.25;8.00;;;;;10.72;54.92;101617.31;146592;569;46919;-71
2022/04/15 01:21:58;;;;;;;;;7.75;7.50;;;;;10.77;54.73;101610.72;146592;570;47008;-75
2022/04/15 01:24:50;;;;;;;;;9.75;7.75;;;;;10.82;54.88;101607.63;146593;565;46008;-74
2022/04/15 01:27:53;;;;;;;;;9.50;9.50;;;;;10.91;54.38;101611.62;146594;618;47008;-75
2022/04/15 01:30:45;;;;;;;;;8.00;7.50;;;;;10.98;54.53;101603.41;146586;579;47930;-74
2022/04/15 01:33:37;;;;;;;;;8.25;8.25;;;;;11.03;54.29;101602.91;146591;707;47008;-72
2022/04/15 01:36:30;;;;;;;;;8.25;8.25;;;;;11.02;54.10;101603.69;146592;607;47919;-72
2022/04/15 01:39:22;;;;;;;;;8.75;8.75;;;;;11.01;54.21;101598.41;146596;564;46021;-72
2022/04/15 01:42:18;;;;;;;;;8.25;8.25;;;;;10.99;54.35;101608.69;146591;563;46016;-71
2022/04/15 01:45:12;;;;;;;;;9.50;8.50;;;;;10.97;54.31;101604.22;146587;578;46020;-71
2022/04/15 01:48:04;;;;;;;;;8.00;8.00;;;;;10.94;54.67;101604.03;146592;646;46016;-73
2022/04/15 01:50:57;;;;;;;;;12.50;12.25;;;;;10.88;54.70;101594.16;146594;604;46020;-71
2022/04/15 01:53:48;;;;;;;;;8.50;8.50;;;;;10.86;54.48;101593.16;146587;588;46016;-72
2022/04/15 01:56:41;;;;;;;;;10.00;9.75;;;;;10.87;54.88;101600.13;146593;563;47008;-71
2022/04/15 01:59:33;;;;;;;;;9.25;9.25;;;;;10.87;54.65;101600.13;146590;582;46017;-71
2022/04/15 02:02:25;;;;;;;;;16.00;13.00;;;;;10.84;55.12;101600.84;146592;687;47008;-71
2022/04/15 02:05:18;;;;;;;;;18.25;17.75;;;;;10.75;55.74;101601.97;146591;628;46918;-73
2022/04/15 02:08:10;;;;;;;;;13.25;13.25;;;;;10.63;55.67;101597.75;146589;604;46021;-73
2022/04/15 02:11:03;;;;;;;;;12.50;11.50;;;;;10.47;57.41;101607.94;146589;624;46016;-73
2022/04/15 02:13:55;;;;;;;;;13.00;13.00;;;;;10.34;56.33;101598.47;146587;585;46021;-71
2022/04/15 02:16:47;;;;;;;;;15.00;12.25;;;;;10.23;56.83;101603.69;146590;575;47010;-72
2022/04/15 02:19:40;;;;;;;;;17.00;12.50;;;;;10.14;57.35;101612.63;146589;573;46020;-72
2022/04/15 02:22:32;;;;;;;;;11.50;10.50;;;;;10.07;57.38;101615.63;146591;570;46016;-72
2022/04/15 02:25:24;;;;;;;;;13.25;12.25;;;;;10.01;57.15;101612.63;146593;581;46008;-71
2022/04/15 02:28:16;;;;;;;;;13.75;12.50;;;;;9.99;58.14;101606.41;146588;564;46919;-71
2022/04/15 02:31:08;;;;;;;;;13.50;13.25;;;;;9.99;58.58;101605.53;146594;574;46020;-74
2022/04/15 02:34:00;;;;;;;;;17.75;16.25;;;;;9.95;58.17;101599.25;146591;573;46010;-77
2022/04/15 02:36:52;;;;;;;;;13.50;12.50;;;;;9.95;57.96;101597.53;146594;570;46009;-71
2022/04/15 02:39:45;;;;;;;;;14.75;12.50;;;;;9.99;59.40;101610.72;146589;569;46016;-72
2022/04/15 02:42:38;;;;;;;;;16.00;13.25;;;;;9.99;59.40;101610.72;146586;601;46020;-72
2022/04/15 02:45:32;;;;;;;;;14.00;13.25;;;;;9.99;59.32;101614.19;146590;631;46010;-73
2022/04/15 02:48:24;;;;;;;;;13.50;12.00;;;;;9.98;60.10;101615.00;146592;593;46020;-72
2022/04/15 02:51:17;;;;;;;;;12.00;11.75;;;;;9.92;59.83;101612.87;146591;579;46016;-72
2022/04/15 02:54:09;;;;;;;;;12.00;12.00;;;;;9.83;60.03;101625.22;146593;589;45021;-72
2022/04/15 02:57:02;;;;;;;;;11.00;11.00;;;;;9.76;59.63;101627.28;146585;586;47919;-72
2022/04/15 02:59:54;;;;;;;;;11.50;11.50;;;;;9.66;60.07;101625.75;146593;569;46021;-71
2022/04/15 03:02:46;;;;;;;;;12.75;11.75;;;;;9.59;59.20;101631.28;146588;586;46016;-71
2022/04/15 03:05:38;;;;;;;;;9.25;9.25;;;;;9.54;58.77;101628.38;146594;675;46008;-71
2022/04/15 03:08:30;;;;;;;;;10.75;10.75;;;;;9.54;58.34;101625.78;146588;576;46016;-74
2022/04/15 03:11:23;;;;;;;;;10.50;9.50;;;;;9.59;58.27;101634.75;146585;594;47008;-74
2022/04/15 03:14:17;;;;;;;;;10.25;10.25;;;;;9.68;57.77;101627.63;146590;571;47011;-74
2022/04/15 03:17:09;;;;;;;;;8.75;8.75;;;;;9.74;57.47;101627.16;146591;569;46010;-73
2022/04/15 03:20:03;;;;;;;;;11.25;9.50;;;;;9.82;56.92;101623.41;146592;580;46919;-72
2022/04/15 03:22:55;;;;;;;;;11.25;11.00;;;;;9.86;57.44;101629.69;146588;611;46021;-71
2022/04/15 03:25:47;;;;;;;;;9.75;9.00;;;;;9.82;58.02;101628.59;146591;617;46016;-71
2022/04/15 03:28:39;;;;;;;;;13.00;11.25;;;;;9.69;59.44;101632.03;146593;623;46009;-74
2022/04/15 03:31:32;;;;;;;;;10.50;10.25;;;;;9.60;58.26;101639.16;146590;582;46010;-71
2022/04/15 03:34:24;;;;;;;;;10.00;10.00;;;;;9.56;57.94;101638.84;146589;603;46917;-72
2022/04/15 03:37:16;;;;;;;;;12.50;11.00;;;;;9.56;58.08;101642.31;146590;608;46031;-72
2022/04/15 03:40:10;;;;;;;;;9.75;9.75;;;;;9.58;57.98;101650.22;146588;592;46020;-72
2022/04/15 03:43:04;;;;;;;;;9.00;8.25;;;;;9.56;58.56;101636.25;146591;619;46919;-71
2022/04/15 03:45:56;;;;;;;;;10.00;8.75;;;;;9.54;58.23;101641.34;146594;635;46010;-72
2022/04/15 03:48:48;;;;;;;;;8.75;8.75;;;;;9.58;58.44;101639.84;146592;595;47010;-72
2022/04/15 03:51:41;;;;;;;;;10.00;9.50;;;;;9.57;58.41;101649.31;146593;592;47008;-72
2022/04/15 03:54:33;;;;;;;;;9.50;9.00;;;;;9.58;57.77;101651.09;146588;625;47012;-72
2022/04/15 03:57:27;;;;;;;;;11.75;10.25;;;;;9.59;58.33;101663.25;146594;580;47008;-73
2022/04/15 04:00:25;;;;;;;;;9.25;9.25;;;;;9.58;57.94;101664.03;146591;616;46010;-72
2022/04/15 04:03:17;;;;;;;;;11.50;10.50;;;;;9.55;58.15;101663.84;146594;635;47008;-73
2022/04/15 04:06:09;;;;;;;;;15.00;15.00;;;;;9.57;57.89;101675.22;146589;583;46017;-77
2022/04/15 04:09:02;;;;;;;;;11.25;11.00;;;;;9.57;58.21;101669.12;146588;569;46020;-74
2022/04/15 04:11:54;;;;;;;;;13.00;11.00;;;;;9.54;58.60;101674.09;146591;565;46010;-73
2022/04/15 04:14:46;;;;;;;;;13.00;12.25;;;;;9.48;59.11;101674.56;146591;595;47008;-74
2022/04/15 04:17:38;;;;;;;;;13.25;12.00;;;;;9.44;59.87;101672.56;146587;648;47016;-75
2022/04/15 04:20:30;;;;;;;;;12.75;12.25;;;;;9.44;58.90;101668.28;146613;569;46008;-75
2022/04/15 04:23:22;;;;;;;;;10.00;10.00;;;;;9.49;58.66;101672.06;146611;583;45919;-72
2022/04/15 04:26:15;;;;;;;;;13.25;11.25;;;;;9.55;59.02;101665.53;146614;570;45008;-72
2022/04/15 04:29:07;;;;;;;;;14.50;13.00;;;;;9.57;59.88;101663.97;146611;678;45919;-70
2022/04/15 04:31:59;;;;;;;;;15.75;12.75;;;;;9.55;59.62;101674.19;146615;599;46008;-70
2022/04/15 04:34:52;;;;;;;;;15.25;13.75;;;;;9.58;59.25;101676.09;146614;728;45016;-69
2022/04/15 04:37:44;;;;;;;;;13.75;13.50;;;;;9.64;59.21;101674.84;146612;631;46008;-71
2022/04/15 04:40:37;;;;;;;;;12.50;11.50;;;;;9.75;59.71;101673.00;146612;614;46012;-71
2022/04/15 04:43:30;;;;;;;;;15.25;13.75;;;;;9.90;59.73;101679.22;146616;565;46009;-72
2022/04/15 04:46:22;;;;;;;;;13.25;13.25;;;;;10.08;59.82;101683.88;146615;565;46008;-71
2022/04/15 04:49:14;;;;;;;;;13.25;12.25;;;;;10.25;59.71;101687.63;146615;588;46008;-72
2022/04/15 04:52:08;;;;;;;;;15.25;13.25;;;;;10.44;59.38;101690.72;146615;669;45919;-72
2022/04/15 04:55:00;;;;;;;;;12.00;10.00;;;;;10.64;58.81;101687.72;146616;607;46008;-69
2022/04/15 04:57:52;;;;;;;;;16.00;13.50;;;;;10.85;59.02;101693.44;146613;683;46009;-71
2022/04/15 05:00:44;;;;;;;;;14.00;13.50;;;;;11.02;58.35;101684.16;146615;681;45916;-72
2022/04/15 05:03:37;;;;;;;;;13.25;13.25;;;;;11.20;58.26;101686.12;146615;570;45025;-71
2022/04/15 05:06:29;;;;;;;;;16.25;15.00;;;;;11.39;57.53;101683.91;146614;603;45021;-72
2022/04/15 05:09:21;;;;;;;;;15.75;15.75;;;;;11.60;57.57;101686.06;146611;636;46010;-71
2022/04/15 05:12:14;;;;;;;;;18.00;16.75;;;;;11.84;56.90;101697.06;146613;591;45020;-75
2022/04/15 05:15:06;;;;;;;;;16.75;15.00;;;;;12.12;56.18;101699.66;146617;649;45010;-74
2022/04/15 05:17:58;;;;;;;;;18.00;10.75;;;;;12.40;55.44;101692.75;146616;666;46008;-74
2022/04/15 05:20:50;;;;;;;;;17.25;15.25;;;;;12.69;55.35;101699.62;146588;662;46017;-74
2022/04/15 05:23:43;;;;;;;;;17.50;16.00;;;;;12.85;55.14;101693.63;146594;570;46008;-73
2022/04/15 05:26:35;;;;;;;;;18.50;15.75;;;;;12.97;55.84;101695.13;146590;587;46030;-71
2022/04/15 05:29:27;;;;;;;;;17.00;14.25;;;;;13.08;55.78;101691.41;146587;767;47008;-71
2022/04/15 05:32:20;;;;;;;;;15.00;14.50;;;;;13.15;55.23;101681.44;146588;597;46016;-71
2022/04/15 05:35:13;;;;;;;;;18.25;17.75;;;;;13.31;55.44;101684.94;146588;578;47916;-72
2022/04/15 05:38:07;;;;;;;;;18.50;17.75;;;;;13.51;55.49;101693.84;146589;623;46016;-78
2022/04/15 05:40:59;;;;;;;;;22.75;18.25;;;;;13.74;54.88;101693.41;146591;600;46020;-78
2022/04/15 05:43:51;;;;;;;;;20.25;16.50;;;;;14.02;54.56;101695.75;146584;591;46016;-78
2022/04/15 05:46:44;;;;;;;;;19.50;16.00;;;;;14.29;53.83;101691.06;146590;589;46008;-72
2022/04/15 05:49:36;;;;;;;;;23.25;19.50;;;;;14.58;53.68;101690.78;146587;583;47010;-73
2022/04/15 05:52:29;;;;;;;;;17.75;17.75;;;;;14.87;52.58;101682.69;146585;669;47008;-76
2022/04/15 05:55:21;;;;;;;;;22.25;21.25;;;;;15.17;51.09;101679.75;146587;581;46918;-74
2022/04/15 05:58:13;;;;;;;;;22.25;20.75;;;;;15.38;49.88;101682.50;146585;597;47008;-74
2022/04/15 06:01:06;;;;;;;;;17.75;16.25;;;;;15.43;49.89;101681.00;146586;612;46016;-74
2022/04/15 06:03:59;;;;;;;;;19.75;16.25;;;;;15.55;49.73;101685.91;146586;572;47008;-74
2022/04/15 06:06:50;;;;;;;;;19.00;18.50;;;;;15.73;49.35;101676.31;146583;592;48918;-70
2022/04/15 06:09:43;;;;;;;;;22.00;18.75;;;;;15.92;49.05;101675.44;146592;568;46020;-71
2022/04/15 06:15:53;;;;;;;;;23.75;18.75;;;;;16.32;48.20;101679.78;146592;593;46008;-71
2022/04/15 06:18:45;;;;;;;;;24.00;22.50;;;;;16.45;48.26;101674.28;146587;627;46010;-76
2022/04/15 06:21:37;;;;;;;;;27.00;24.00;;;;;16.59;47.41;101675.72;146589;587;46008;-76
2022/04/15 06:24:29;;;;;;;;;31.75;28.50;;;;;16.68;46.84;101672.59;146586;570;47012;-75
2022/04/15 06:27:21;;;;;;;;;31.50;28.25;;;;;16.77;46.94;101674.75;146590;567;46021;-74
2022/04/15 06:30:13;;;;;;;;;27.00;25.00;;;;;16.85;46.52;101675.94;146588;598;46012;-75
2022/04/15 06:33:08;;;;;;;;;26.75;23.50;;;;;16.92;45.41;101674.47;146587;666;47008;-75
2022/04/15 06:36:00;;;;;;;;;25.75;21.75;;;;;16.95;45.54;101679.84;146586;620;46016;-75
2022/04/15 06:38:53;;;;;;;;;24.25;21.25;;;;;17.00;45.77;101686.16;146587;596;46008;-75
2022/04/15 06:41:45;;;;;;;;;23.50;19.25;;;;;17.02;45.26;101679.25;146587;624;46017;-76
2022/04/15 06:44:40;;;;;;;;;29.25;24.75;;;;;17.01;45.42;101665.25;146589;576;46020;-76
2022/04/15 06:47:32;;;;;;;;;31.00;27.75;;;;;17.07;45.78;101676.00;146587;636;46017;-74
2022/04/15 06:50:24;;;;;;;;;35.25;25.75;;;;;17.17;44.90;101676.34;146593;692;46008;-74
2022/04/15 06:53:16;;;;;;;;;21.75;19.75;;;;;17.30;45.30;101678.63;146587;577;46016;-73
2022/04/15 06:56:10;;;;;;;;;28.00;25.00;;;;;17.44;44.92;101682.66;146590;611;47008;-74
2022/04/15 06:59:02;;;;;;;;;26.50;23.75;;;;;17.60;45.20;101681.53;146584;625;46016;-74
2022/04/15 07:01:55;;;;;;;;;26.75;26.00;;;;;17.72;44.26;101673.22;146587;627;46008;-76
2022/04/15 07:04:49;;;;;;;;;24.75;22.75;;;;;17.86;45.95;101679.00;146584;692;47012;-73
2022/04/15 07:07:42;;;;;;;;;26.75;22.50;;;;;17.99;45.80;101683.88;146589;588;46020;-69
2022/04/15 07:10:34;;;;;;;;;21.25;19.25;;;;;18.18;46.89;101669.66;146584;590;46034;-69
2022/04/15 07:13:26;;;;;;;;;19.75;18.50;;;;;18.39;46.44;101674.78;146591;606;46021;-70
2022/04/15 07:16:18;;;;;;;;;24.00;21.50;;;;;18.59;43.30;101672.81;146587;660;47012;-70
2022/04/15 07:19:11;;;;;;;;;23.25;22.25;;;;;18.64;43.59;101684.37;146587;637;46021;-70
2022/04/15 07:22:05;;;;;;;;;26.25;24.75;;;;;18.65;43.91;101680.91;146585;621;46010;-70
2022/04/15 07:24:57;;;;;;;;;23.50;21.75;;;;;18.75;44.01;101674.25;146587;589;46916;-71
2022/04/15 07:27:48;;;;;;;;;23.75;21.25;;;;;18.89;43.31;101676.50;146587;591;46016;-70
2022/04/15 07:30:41;;;;;;;;;23.00;21.25;;;;;18.95;43.23;101678.44;146588;624;46010;-71
2022/04/15 07:33:33;;;;;;;;;26.25;23.00;;;;;19.02;44.08;101669.91;146584;628;47010;-70
2022/04/15 07:36:31;;;;;;;;;24.00;22.00;;;;;19.18;42.93;101666.00;146588;576;46008;-70
2022/04/15 07:39:23;;;;;;;;;20.50;20.00;;;;;19.27;41.46;101670.66;146583;592;47013;-71
2022/04/15 07:42:16;;;;;;;;;18.00;15.50;;;;;19.30;42.27;101665.50;146587;582;47008;-70
2022/04/15 07:45:09;;;;;;;;;13.25;12.00;;;;;19.30;40.65;101665.50;146591;573;46918;-70
2022/04/15 07:48:07;;;;;;;;;16.00;15.00;;;;;19.34;41.38;101657.72;146591;608;46009;-71
2022/04/15 07:50:59;;;;;;;;;20.75;18.25;;;;;19.45;42.76;101652.81;146589;594;46010;-81
2022/04/15 07:53:51;;;;;;;;;16.00;15.75;;;;;19.51;42.61;101660.00;146587;662;46020;-79
2022/04/15 07:56:43;;;;;;;;;12.25;12.25;;;;;19.54;41.66;101657.47;146586;639;46016;-74
2022/04/15 07:59:35;;;;;;;;;12.75;12.00;;;;;19.58;40.76;101661.97;146586;602;47008;-72
2022/04/15 08:02:27;;;;;;;;;19.50;19.00;;;;;19.65;42.30;101665.69;146586;589;46017;-74
2022/04/15 08:05:23;;;;;;;;;16.50;14.00;;;;;19.72;42.31;101654.47;146594;588;46020;-74
2022/04/15 08:08:15;;;;;;;;;14.50;13.75;;;;;19.82;42.81;101651.28;146585;571;46016;-74
2022/04/15 08:11:09;;;;;;;;;11.50;11.50;;;;;19.99;40.09;101647.37;146588;617;47008;-74
2022/04/15 08:14:02;;;;;;;;;15.00;11.00;;;;;20.18;39.70;101638.22;146588;595;47010;-74
2022/04/15 08:17:00;;;;;;;;;13.50;13.50;;;;;20.34;40.01;101643.87;146592;571;46918;-74
2022/04/15 08:19:55;;;;;;;;;12.75;11.75;;;;;20.40;38.55;101642.28;146583;635;47010;-74
2022/04/15 08:22:47;;;;;;;;;10.00;10.00;;;;;20.45;38.84;101639.81;146592;645;46024;-72
2022/04/15 08:25:39;;;;;;;;;11.00;10.25;;;;;20.41;41.08;101640.59;146588;603;46010;-70
2022/04/15 08:28:32;;;;;;;;;13.00;11.00;;;;;20.37;40.22;101636.94;146587;571;46008;-74
2022/04/15 08:31:24;;;;;;;;;12.25;12.25;;;;;20.28;40.12;101631.47;146588;585;46025;-74
2022/04/15 08:34:16;;;;;;;;;10.25;10.00;;;;;20.19;39.51;101636.50;146591;563;46008;-74
2022/04/15 08:37:09;;;;;;;;;8.00;8.00;;;;;20.08;39.58;101631.81;146585;647;46917;-75
2022/04/15 08:40:01;;;;;;;;;10.00;8.00;;;;;20.06;39.63;101630.91;146596;577;46008;-73
2022/04/15 08:42:55;;;;;;;;;13.50;11.00;;;;;20.10;39.46;101625.72;146590;623;46016;-75
2022/04/15 08:45:50;;;;;;;;;11.75;9.75;;;;;20.15;40.09;101626.72;146591;596;47008;-75
2022/04/15 08:48:43;;;;;;;;;9.75;8.50;;;;;20.29;39.92;101626.22;146588;623;47012;-75
2022/04/15 08:51:37;;;;;;;;;7.50;7.50;;;;;20.41;40.08;101619.50;146592;607;47008;-75
2022/04/15 08:54:31;;;;;;;;;11.75;11.50;;;;;20.55;41.35;101615.50;146590;570;47011;-76
2022/04/15 08:57:24;;;;;;;;;11.25;10.50;;;;;20.74;39.62;101609.81;146585;564;47008;-76
2022/04/15 09:00:17;;;;;;;;;13.50;12.00;;;;;20.90;40.48;101600.53;146589;568;46016;-76
2022/04/15 09:03:09;;;;;;;;;14.00;13.50;;;;;21.05;40.39;101596.44;146590;640;47010;-76
2022/04/15 09:06:01;;;;;;;;;13.50;12.00;;;;;21.23;39.44;101586.28;146589;563;45916;-77
2022/04/15 09:09:14;;;;;;;;;13.00;13.00;;;;;21.43;40.27;101582.37;146594;567;46008;-76
2022/04/15 09:12:06;;;;;;;;;11.75;10.00;;;;;21.61;39.83;101579.19;146586;578;46016;-75
2022/04/15 09:15:02;;;;;;;;;10.25;10.25;;;;;21.71;38.51;101576.72;146594;576;46020;-75
2022/04/15 09:17:59;;;;;;;;;12.50;11.25;;;;;21.77;37.59;101575.09;146586;614;46017;-76
2022/04/15 09:20:51;;;;;;;;;11.75;10.25;;;;;21.84;37.99;101568.19;146592;595;46020;-76
2022/04/15 09:23:44;;;;;;;;;11.00;10.50;;;;;21.94;38.07;101567.50;146590;594;47010;-75
2022/04/15 09:26:37;;;;;;;;;10.00;10.00;;;;;21.96;37.77;101557.84;146584;633;47919;-76
2022/04/15 09:29:38;;;;;;;;;13.75;10.75;;;;;21.89;38.20;101559.47;146588;565;45917;-75
2022/04/15 09:32:30;;;;;;;;;12.25;11.75;;;;;21.84;38.83;101553.25;146592;664;46010;-75
2022/04/15 09:35:23;;;;;;;;;10.50;9.75;;;;;21.74;38.62;101553.91;146589;604;46016;-77
2022/04/15 09:38:15;;;;;;;;;10.50;10.00;;;;;21.59;37.69;101553.66;146595;565;46009;-76
2022/04/15 09:41:23;;;;;;;;;12.50;11.00;;;;;21.47;40.76;101546.38;146585;563;47008;-75
2022/04/15 09:44:09;;;;;;;;;9.00;9.00;;;;;21.38;38.47;101548.84;146591;658;46020;-76
2022/04/15 09:47:01;;;;;;;;;5.50;4.25;;;;;21.27;37.79;101547.69;146591;581;46010;-77
2022/04/15 09:49:53;;;;;;;;;11.25;11.25;;;;;21.16;36.80;101540.44;146593;722;47010;-75
2022/04/15 09:52:46;;;;;;;;;10.75;10.75;;;;;21.07;39.34;101532.34;146587;577;47012;-75
2022/04/15 09:55:40;;;;;;;;;10.00;9.00;;;;;21.04;38.13;101534.03;146585;662;47008;-75
2022/04/15 09:58:35;;;;;;;;;12.50;12.00;;;;;21.06;39.35;101529.66;146589;650;47008;-75
2022/04/15 10:01:32;;;;;;;;;12.00;12.00;;;;;21.18;36.96;101525.56;146592;604;46008;-77
2022/04/15 10:04:26;;;;;;;;;14.00;13.25;;;;;21.38;38.25;101522.44;146586;581;46016;-75
2022/04/15 10:07:19;;;;;;;;;13.75;11.00;;;;;21.63;37.47;101516.78;146589;575;46021;-76
2022/04/15 10:10:13;;;;;;;;;11.50;11.25;;;;;21.70;36.89;101519.53;146590;614;46010;-76
2022/04/15 10:13:07;;;;;;;;;13.75;12.25;;;;;21.66;33.93;101511.56;146592;607;46020;-76
2022/04/15 10:16:00;;;;;;;;;16.00;14.00;;;;;21.70;36.31;101514.25;146589;702;46917;-76
2022/04/15 10:18:54;;;;;;;;;12.50;11.50;;;;;21.78;37.51;101512.66;146592;617;47010;-74
2022/04/15 10:21:50;;;;;;;;;14.00;13.25;;;;;21.99;35.83;101502.44;146589;588;46017;-75
2022/04/15 10:24:43;;;;;;;;;12.25;12.25;;;;;22.06;33.79;101504.34;146586;658;47008;-74
2022/04/15 10:27:34;;;;;;;;;8.50;8.50;;;;;22.14;35.31;101494.75;146586;606;46016;-74
2022/04/15 10:30:27;;;;;;;;;11.00;11.00;;;;;22.24;35.91;101490.56;146594;583;45021;-76
2022/04/15 10:33:33;;;;;;;;;12.00;11.25;;;;;22.39;36.31;101489.91;146592;611;46916;-75
2022/04/15 10:36:27;;;;;;;;;8.75;8.00;;;;;22.51;36.04;101487.44;146594;577;46008;-75
2022/04/15 10:39:26;;;;;;;;;11.50;11.50;;;;;22.70;33.04;101495.63;146591;600;47010;-76
2022/04/15 10:42:25;;;;;;;;;11.25;11.25;;;;;22.83;35.91;101493.19;146591;576;47008;-76
2022/04/15 10:45:41;;;;;;;;;11.00;11.00;;;;;22.83;35.23;101490.53;146587;564;46017;-75
2022/04/15 10:48:35;;;;;;;;;8.50;8.25;;;;;22.88;33.35;101482.66;146591;596;46020;-76
2022/04/15 10:51:35;;;;;;;;;9.75;9.75;;;;;22.95;33.99;101487.19;146589;592;46016;-76
2022/04/15 10:54:48;;;;;;;;;6.50;6.50;;;;;22.90;31.30;101473.00;146587;603;46021;-75
2022/04/15 10:57:46;;;;;;;;;11.00;10.25;;;;;22.54;32.98;101420.53;146591;700;47010;-75
2022/04/15 11:03:57;;;;;;;;;8.50;7.75;;;;;22.74;31.98;101461.34;146594;702;46010;-75
2022/04/15 11:06:50;;;;;;;;;9.25;9.25;;;;;22.68;30.27;101449.75;146591;618;47008;-75
2022/04/15 11:09:42;;;;;;;;;10.00;10.00;;;;;22.62;31.93;101454.97;146591;686;46016;-76
2022/04/15 11:12:52;;;;;;;;;8.50;8.50;;;;;22.51;30.86;101442.50;146592;697;46020;-76
2022/04/15 11:16:15;;;;;;;;;9.25;9.00;;;;;22.36;30.56;101437.00;146591;564;45916;-76
2022/04/15 11:19:07;;;;;;;;;11.25;9.50;;;;;22.28;31.67;101433.37;146593;601;46020;-76
2022/04/15 11:21:59;;;;;;;;;7.00;7.00;;;;;22.29;34.14;101429.87;146591;564;46016;-77
2022/04/15 11:24:53;;;;;;;;;9.25;9.25;;;;;22.36;33.77;101421.16;146586;596;46010;-76
2022/04/15 11:27:46;;;;;;;;;5.75;5.00;;;;;22.48;34.22;101429.25;146592;569;46012;-77
2022/04/15 11:30:38;;;;;;;;;10.00;8.00;;;;;22.55;33.50;101428.50;146595;614;46008;-76
2022/04/15 11:33:30;;;;;;;;;8.00;7.75;;;;;21.95;33.55;101334.25;146588;611;47010;-78
2022/04/15 11:36:24;;;;;;;;;8.75;8.75;;;;;22.41;32.11;101405.38;146593;593;46021;-76
2022/04/15 11:39:24;;;;;;;;;10.00;9.75;;;;;22.44;34.32;101401.03;146591;575;46034;-77
2022/04/15 11:42:19;;;;;;;;;10.00;9.00;;;;;22.50;34.13;101402.87;146590;565;46020;-76
2022/04/15 11:45:14;;;;;;;;;8.00;7.25;;;;;22.55;33.71;101402.06;146589;583;46032;-77
2022/04/15 11:48:29;;;;;;;;;8.25;8.25;;;;;22.69;35.06;101402.22;146592;604;47020;-77
2022/04/15 11:51:25;;;;;;;;;8.25;8.25;;;;;22.80;35.02;101390.03;146590;590;46017;-74
2022/04/15 11:54:17;;;;;;;;;7.25;6.75;;;;;22.78;33.68;101390.88;146588;579;46020;-77
2022/04/15 11:57:10;;;;;;;;;6.75;6.75;;;;;22.71;32.26;101382.00;146591;644;47016;-76
2022/04/15 12:00:03;;;;;;;;;6.00;6.00;;;;;22.72;32.86;101375.81;146593;628;46021;-76
2022/04/15 12:03:06;;;;;;;;;8.75;7.00;;;;;22.69;31.62;101374.91;146589;603;47012;-76
2022/04/15 12:05:59;;;;;;;;;10.50;8.00;;;;;22.68;33.62;101374.03;146596;609;46008;-76
2022/04/15 12:08:51;;;;;;;;;7.75;7.75;;;;;22.76;33.35;101371.44;146590;639;46016;-76
2022/04/15 12:11:44;;;;;;;;;6.75;6.75;;;;;22.88;32.95;101373.34;146593;639;46020;-75
2022/04/15 12:14:43;;;;;;;;;7.50;7.50;;;;;23.02;33.43;101369.13;146593;595;46016;-75
2022/04/15 12:17:35;;;;;;;;;7.50;7.50;;;;;23.02;33.56;101375.31;146594;624;46020;-77
2022/04/15 12:20:29;;;;;;;;;6.25;6.25;;;;;22.93;32.51;101369.91;146614;565;46008;-76
2022/04/15 12:23:22;;;;;;;;;8.00;7.25;;;;;22.72;32.95;101362.59;146615;564;45020;-75
2022/04/15 12:26:14;;;;;;;;;7.25;6.75;;;;;22.70;30.87;101351.09;146616;577;46008;-76
2022/04/15 12:32:24;;;;;;;;;8.75;8.75;;;;;22.84;33.18;101346.00;146612;611;45915;-75
2022/04/15 12:35:18;;;;;;;;;8.50;6.75;;;;;22.85;30.62;101344.22;146612;692;46008;-75
2022/04/15 12:38:10;;;;;;;;;8.25;7.75;;;;;22.85;33.17;101334.53;146613;575;46008;-76
2022/04/15 12:41:12;;;;;;;;;8.00;8.00;;;;;22.82;34.94;101330.09;146615;650;46008;-76
2022/04/15 12:44:33;;;;;;;;;7.50;7.50;;;;;21.84;34.85;101188.91;146610;565;45918;-77
2022/04/15 12:47:29;;;;;;;;;7.25;7.25;;;;;22.62;33.25;101346.59;146614;569;45020;-79
2022/04/15 12:50:28;;;;;;;;;9.00;8.50;;;;;22.51;33.45;101341.19;146608;629;45918;-78
2022/04/15 12:53:22;;;;;;;;;8.25;8.00;;;;;22.42;33.49;101351.66;146614;603;46008;-75
2022/04/15 12:56:15;;;;;;;;;8.50;8.50;;;;;22.37;34.59;101363.06;146612;564;46012;-78
2022/04/15 12:59:07;;;;;;;;;10.25;10.00;;;;;22.30;34.88;101371.75;146611;647;45021;-71
2022/04/15 13:02:01;;;;;;;;;8.50;8.25;;;;;21.81;35.39;101291.84;146614;607;46010;-75
2022/04/15 13:04:55;;;;;;;;;8.50;8.50;;;;;22.17;35.54;101350.44;146614;565;46008;-78
2022/04/15 13:07:49;;;;;;;;;8.75;8.50;;;;;22.17;34.40;101353.09;146612;630;45012;-86
2022/04/15 13:10:41;;;;;;;;;8.75;8.75;;;;;22.23;35.85;101347.88;146615;662;45025;-81
2022/04/15 13:13:33;;;;;;;;;11.00;10.50;;;;;22.27;35.83;101344.41;146612;596;45016;-76
2022/04/15 13:16:26;;;;;;;;;10.25;9.25;;;;;22.33;34.79;101329.53;146614;594;45020;-77
2022/04/15 13:19:18;;;;;;;;;9.00;8.00;;;;;22.37;35.15;101325.19;146600;590;46016;-78
2022/04/15 13:22:10;;;;;;;;;12.50;10.75;;;;;22.38;35.71;101332.25;146585;697;47008;-75
2022/04/15 13:25:03;;;;;;;;;9.00;9.00;;;;;22.35;34.93;101338.37;146589;569;46012;-78
2022/04/15 13:27:55;;;;;;;;;9.75;8.50;;;;;22.34;35.13;101356.84;146593;672;46021;-79